Time;durP1;ratioP1;P1;durP2;ratioP2;P2;SDS_P1;SDS_P2;PMS_P1;PMS_P2;Temp;Humidity;BMP_temperature;BMP_pressure;BME280_temperature;BME280_humidity;BME280_pressure;Samples;Min_cycle;Max_cycle;Signal;HPM_P1;HPM_P2
2022/01/07 00:00:01;;;;;;;6.95;2.80;;;4.10;91.80;;;;;;2097526;28;20036;-83
2022/01/07 00:01:03;;;;;;;8.65;3.15;;;4.00;91.80;;;;;;2089936;28;20044;-83
2022/01/07 00:02:04;;;;;;;7.57;2.97;;;4.10;91.90;;;;;;2068618;28;20038;-84
2022/01/07 00:03:05;;;;;;;6.90;2.97;;;4.00;91.80;;;;;;2064535;28;20513;-86
2022/01/07 00:04:06;;;;;;;7.88;2.90;;;4.00;91.80;;;;;;2074051;28;20053;-86
2022/01/07 00:05:07;;;;;;;5.97;2.63;;;4.00;91.80;;;;;;2080744;28;20116;-85
2022/01/07 00:06:08;;;;;;;8.85;3.03;;;4.00;91.80;;;;;;2079285;28;20400;-87
2022/01/07 00:07:09;;;;;;;6.45;2.40;;;4.00;91.80;;;;;;2089086;28;20064;-86
2022/01/07 00:08:10;;;;;;;6.00;2.75;;;4.00;91.80;;;;;;2097612;28;20135;-86
2022/01/07 00:09:10;;;;;;;5.90;2.70;;;4.00;91.80;;;;;;2100026;28;20032;-86
2022/01/07 00:10:14;;;;;;;5.15;2.42;;;4.10;91.80;;;;;;2103164;28;20024;-85
2022/01/07 00:11:15;;;;;;;6.15;2.72;;;4.10;91.80;;;;;;2099618;28;20033;-85
2022/01/07 00:12:19;;;;;;;9.18;3.22;;;4.10;91.80;;;;;;2096278;28;20040;-86
2022/01/07 00:13:20;;;;;;;5.50;2.42;;;4.10;91.80;;;;;;2107736;28;20017;-86
2022/01/07 00:14:21;;;;;;;6.05;2.17;;;4.10;91.80;;;;;;2095635;28;20037;-86
2022/01/07 00:15:22;;;;;;;5.78;2.20;;;4.10;91.80;;;;;;2090496;28;20075;-87
2022/01/07 00:16:22;;;;;;;6.03;2.63;;;4.10;91.80;;;;;;2090493;28;20065;-87
2022/01/07 00:17:23;;;;;;;6.03;2.65;;;4.10;91.80;;;;;;2091744;28;20418;-86
2022/01/07 00:18:24;;;;;;;5.30;2.22;;;4.10;91.80;;;;;;2086877;28;20134;-86
2022/01/07 00:19:24;;;;;;;6.57;2.63;;;4.10;91.80;;;;;;2090262;28;20038;-86
2022/01/07 00:20:27;;;;;;;5.93;2.60;;;4.10;91.80;;;;;;2090639;28;20052;-86
2022/01/07 00:21:27;;;;;;;7.50;2.53;;;4.10;92.00;;;;;;2091329;28;20107;-86
2022/01/07 00:22:28;;;;;;;6.13;2.45;;;4.10;91.70;;;;;;2090466;28;20033;-86
2022/01/07 00:23:28;;;;;;;4.93;2.30;;;4.10;91.70;;;;;;2082273;28;20044;-86
2022/01/07 00:24:29;;;;;;;6.85;2.40;;;4.10;91.70;;;;;;2072824;28;20132;-87
2022/01/07 00:25:30;;;;;;;5.50;2.38;;;4.10;91.70;;;;;;2065302;28;20038;-86
2022/01/07 00:26:30;;;;;;;7.15;2.60;;;4.10;91.70;;;;;;2073598;28;20485;-86
2022/01/07 00:27:31;;;;;;;6.20;2.63;;;4.10;91.70;;;;;;2073832;28;20045;-86
2022/01/07 00:28:32;;;;;;;6.53;2.65;;;4.10;91.70;;;;;;2094710;28;20404;-86
2022/01/07 00:29:33;;;;;;;5.75;2.60;;;4.10;91.70;;;;;;2090126;28;20052;-86
2022/01/07 00:30:33;;;;;;;5.07;2.50;;;4.10;91.70;;;;;;2081948;28;20030;-85
2022/01/07 00:31:34;;;;;;;7.38;2.58;;;4.10;91.70;;;;;;2093301;28;20210;-85
2022/01/07 00:32:35;;;;;;;7.32;2.47;;;4.10;91.70;;;;;;2079448;28;20045;-85
2022/01/07 00:33:36;;;;;;;10.75;2.90;;;4.10;91.70;;;;;;2073498;28;20078;-86
2022/01/07 00:34:37;;;;;;;6.38;2.55;;;4.00;91.70;;;;;;2080058;28;20041;-87
2022/01/07 00:35:37;;;;;;;7.22;3.05;;;4.10;91.70;;;;;;2098459;28;20067;-86
2022/01/07 00:36:38;;;;;;;8.93;3.15;;;4.10;91.70;;;;;;2096653;28;20123;-86
2022/01/07 00:37:39;;;;;;;6.30;2.85;;;4.00;91.60;;;;;;2090799;28;20110;-86
2022/01/07 00:38:40;;;;;;;8.13;3.22;;;4.00;91.60;;;;;;2098995;28;20051;-86
2022/01/07 00:39:40;;;;;;;10.55;3.30;;;4.00;91.60;;;;;;2098253;28;20041;-86
2022/01/07 00:40:41;;;;;;;8.45;3.60;;;4.00;91.60;;;;;;2095889;28;20028;-85
2022/01/07 00:41:42;;;;;;;7.30;2.97;;;4.00;91.70;;;;;;2089810;28;20033;-86
2022/01/07 00:42:42;;;;;;;7.20;3.30;;;4.00;91.70;;;;;;2087075;28;20045;-87
2022/01/07 00:43:43;;;;;;;6.95;2.97;;;4.00;91.70;;;;;;2098474;28;20046;-87
2022/01/07 00:44:44;;;;;;;7.38;3.10;;;4.00;91.70;;;;;;2086379;28;20088;-86
2022/01/07 00:45:45;;;;;;;7.82;2.90;;;3.90;91.70;;;;;;2081866;28;20536;-87
2022/01/07 00:46:46;;;;;;;8.48;3.47;;;3.90;91.70;;;;;;2090836;28;20376;-87
2022/01/07 00:47:47;;;;;;;6.32;3.17;;;3.90;91.80;;;;;;2095316;28;20086;-87
2022/01/07 00:48:48;;;;;;;7.57;3.30;;;3.90;91.80;;;;;;2084981;28;20052;-87
2022/01/07 00:49:49;;;;;;;5.28;2.75;;;3.90;91.80;;;;;;2074370;28;20056;-87
2022/01/07 00:50:49;;;;;;;9.05;3.70;;;3.90;92.10;;;;;;2091038;28;20072;-86
2022/01/07 00:51:51;;;;;;;7.93;3.10;;;3.80;91.90;;;;;;2094435;28;20041;-88
2022/01/07 00:52:51;;;;;;;6.47;2.70;;;3.80;91.90;;;;;;2081733;28;20037;-88
2022/01/07 00:53:52;;;;;;;7.82;2.65;;;3.80;91.90;;;;;;2093816;28;20155;-86
2022/01/07 00:54:52;;;;;;;9.02;3.38;;;3.80;91.90;;;;;;2090273;28;20076;-87
2022/01/07 00:55:53;;;;;;;5.95;2.88;;;3.80;92.00;;;;;;2070540;28;20099;-86
2022/01/07 00:56:54;;;;;;;6.68;2.90;;;3.80;92.00;;;;;;2073811;28;20049;-86
2022/01/07 00:57:55;;;;;;;8.82;3.10;;;3.80;92.00;;;;;;2097936;28;20505;-86
2022/01/07 00:58:56;;;;;;;9.75;3.25;;;3.70;92.00;;;;;;2090146;28;20028;-86
2022/01/07 00:59:57;;;;;;;6.15;2.65;;;3.70;92.10;;;;;;2089980;28;20487;-87
2022/01/07 01:00:57;;;;;;;6.97;3.08;;;3.70;92.10;;;;;;2092540;28;20036;-86
2022/01/07 01:01:58;;;;;;;5.43;2.42;;;3.70;92.10;;;;;;2097310;28;20040;-87
2022/01/07 01:02:59;;;;;;;6.20;2.63;;;3.70;92.10;;;;;;2081680;28;20412;-86
2022/01/07 01:04:00;;;;;;;7.57;3.00;;;3.70;92.20;;;;;;2073876;28;20510;-86
2022/01/07 01:05:00;;;;;;;6.88;2.60;;;3.70;92.20;;;;;;2081829;28;20038;-86
2022/01/07 01:06:01;;;;;;;5.25;2.55;;;3.60;92.20;;;;;;2074217;28;20041;-86
2022/01/07 01:07:02;;;;;;;8.38;2.97;;;3.60;92.30;;;;;;2083546;28;20033;-86
2022/01/07 01:08:03;;;;;;;6.25;2.67;;;3.60;92.30;;;;;;2092484;28;20135;-87
2022/01/07 01:09:04;;;;;;;6.25;2.67;;;3.60;92.30;;;;;;2095513;28;20063;-86
2022/01/07 01:10:07;;;;;;;6.63;3.05;;;3.60;92.30;;;;;;2089790;28;20060;-86
2022/01/07 01:11:07;;;;;;;8.35;2.97;;;3.60;92.40;;;;;;2094040;28;20064;-87
2022/01/07 01:12:10;;;;;;;7.20;2.80;;;3.60;92.40;;;;;;2092735;28;20048;-87
2022/01/07 01:13:12;;;;;;;5.97;2.63;;;3.60;92.40;;;;;;2082923;28;20042;-86
2022/01/07 01:14:12;;;;;;;5.22;2.63;;;3.60;92.40;;;;;;2082213;28;20080;-86
2022/01/07 01:15:17;;;;;;;5.95;2.60;;;3.50;92.40;;;;;;2092882;28;20037;-86
2022/01/07 01:16:17;;;;;;;7.72;2.80;;;3.50;92.50;;;;;;2093274;28;20487;-86
2022/01/07 01:17:18;;;;;;;6.15;2.63;;;3.50;92.50;;;;;;2089967;28;20092;-86
2022/01/07 01:18:18;;;;;;;5.65;2.67;;;3.50;92.60;;;;;;2093251;28;20124;-86
2022/01/07 01:19:19;;;;;;;7.75;2.88;;;3.50;92.60;;;;;;2092484;28;20422;-86
2022/01/07 01:20:20;;;;;;;6.95;2.75;;;3.50;92.60;;;;;;2092689;28;20033;-86
2022/01/07 01:21:21;;;;;;;6.97;3.30;;;3.50;92.70;;;;;;2086326;28;20040;-86
2022/01/07 01:22:22;;;;;;;6.18;2.83;;;3.40;92.70;;;;;;2090281;28;20515;-86
2022/01/07 01:23:22;;;;;;;8.52;3.50;;;3.40;92.70;;;;;;2086811;28;20044;-87
2022/01/07 01:24:23;;;;;;;5.28;2.83;;;3.40;92.70;;;;;;2073498;28;20145;-85
2022/01/07 01:25:24;;;;;;;5.60;2.55;;;3.40;92.70;;;;;;2074427;28;20121;-85
2022/01/07 01:26:25;;;;;;;7.72;3.40;;;3.40;92.80;;;;;;2081565;28;20434;-85
2022/01/07 01:27:25;;;;;;;8.40;3.45;;;3.40;92.80;;;;;;2089901;28;20094;-86
2022/01/07 01:28:26;;;;;;;6.25;3.00;;;3.40;92.80;;;;;;2090411;28;20044;-85
2022/01/07 01:29:27;;;;;;;7.65;2.85;;;3.30;92.80;;;;;;2090366;28;20123;-86
2022/01/07 01:30:28;;;;;;;6.80;3.20;;;3.30;92.80;;;;;;2084425;28;20069;-85
2022/01/07 01:31:30;;;;;;;9.38;2.88;;;3.30;92.90;;;;;;2083468;28;20492;-85
2022/01/07 01:32:31;;;;;;;9.48;3.63;;;3.30;92.90;;;;;;2073402;28;20038;-85
2022/01/07 01:33:32;;;;;;;6.70;3.30;;;3.30;93.00;;;;;;2063441;28;20138;-85
2022/01/07 01:34:33;;;;;;;6.15;3.30;;;3.30;93.00;;;;;;2077747;28;20045;-86
2022/01/07 01:35:37;;;;;;;5.50;2.90;;;3.30;93.00;;;;;;2089923;28;20033;-85
2022/01/07 01:36:37;;;;;;;5.35;2.75;;;3.30;93.10;;;;;;2089641;28;20041;-86
2022/01/07 01:37:38;;;;;;;5.15;2.60;;;3.30;93.10;;;;;;2089747;28;20432;-85
2022/01/07 01:38:39;;;;;;;8.27;3.15;;;3.30;93.10;;;;;;2089781;28;20041;-86
2022/01/07 01:39:39;;;;;;;7.80;3.33;;;3.30;93.10;;;;;;2080749;28;20559;-86
2022/01/07 01:40:40;;;;;;;8.38;3.42;;;3.20;93.10;;;;;;2087569;28;20533;-86
2022/01/07 01:41:42;;;;;;;6.78;2.90;;;3.20;93.10;;;;;;2074115;28;20496;-87
2022/01/07 01:42:44;;;;;;;7.82;3.00;;;3.30;93.20;;;;;;2089474;28;20462;-87
2022/01/07 01:43:48;;;;;;;6.55;3.10;;;3.30;93.20;;;;;;2089429;28;20032;-86
2022/01/07 01:44:49;;;;;;;5.70;2.67;;;3.20;93.50;;;;;;2090093;28;22607;-87
2022/01/07 01:45:50;;;;;;;6.47;2.85;;;3.30;93.30;;;;;;2089700;28;20040;-85
2022/01/07 01:46:51;;;;;;;7.25;2.97;;;3.30;93.30;;;;;;2098029;28;20040;-87
2022/01/07 01:47:52;;;;;;;6.75;3.10;;;3.20;93.30;;;;;;2096990;28;20033;-86
2022/01/07 01:48:53;;;;;;;7.13;2.95;;;3.20;93.30;;;;;;2092069;28;20036;-86
2022/01/07 01:49:53;;;;;;;6.95;2.85;;;3.20;93.30;;;;;;2093739;28;20036;-87
2022/01/07 01:50:58;;;;;;;6.15;2.70;;;3.20;93.30;;;;;;2081085;28;20423;-86
2022/01/07 01:52:00;;;;;;;7.45;3.00;;;3.20;93.40;;;;;;2082825;28;20041;-84
2022/01/07 01:53:01;;;;;;;7.63;2.65;;;3.20;93.40;;;;;;2098991;28;20484;-86
2022/01/07 01:54:03;;;;;;;6.03;2.90;;;3.20;93.40;;;;;;2078760;28;20065;-86
2022/01/07 01:55:05;;;;;;;6.03;2.80;;;3.20;93.40;;;;;;2088725;28;20037;-86
2022/01/07 01:56:06;;;;;;;7.43;3.42;;;3.20;93.40;;;;;;2097329;28;20549;-86
2022/01/07 01:57:06;;;;;;;7.35;2.97;;;3.20;93.40;;;;;;2073028;28;20069;-87
2022/01/07 01:58:07;;;;;;;6.55;2.65;;;3.20;93.40;;;;;;2081370;28;20048;-86
2022/01/07 01:59:09;;;;;;;7.63;3.00;;;3.30;93.40;;;;;;2086123;28;20033;-86
2022/01/07 02:00:11;;;;;;;6.28;2.80;;;3.20;93.40;;;;;;2089171;28;20128;-87
2022/01/07 02:01:11;;;;;;;5.80;2.60;;;3.20;93.40;;;;;;2093173;28;20028;-86
2022/01/07 02:02:12;;;;;;;6.85;2.55;;;3.20;93.40;;;;;;2094900;28;20043;-85
2022/01/07 02:03:13;;;;;;;6.45;3.00;;;3.30;93.50;;;;;;2089474;28;20400;-86
2022/01/07 02:04:13;;;;;;;7.10;2.92;;;3.30;93.50;;;;;;2080603;28;20523;-86
2022/01/07 02:05:14;;;;;;;5.93;2.95;;;3.30;93.80;;;;;;2089237;28;20480;-86
2022/01/07 02:06:16;;;;;;;4.82;2.70;;;3.30;93.50;;;;;;2088406;28;20047;-85
2022/01/07 02:07:16;;;;;;;5.25;2.50;;;3.30;93.50;;;;;;2089019;28;20029;-85
2022/01/07 02:08:17;;;;;;;7.30;2.70;;;3.30;93.50;;;;;;2087957;28;20039;-86
2022/01/07 02:09:22;;;;;;;5.57;2.85;;;3.30;93.50;;;;;;2089488;28;20180;-85
2022/01/07 02:10:23;;;;;;;4.28;2.47;;;3.30;93.50;;;;;;2094722;28;20499;-85
2022/01/07 02:11:24;;;;;;;7.38;2.65;;;3.30;93.80;;;;;;2098240;28;20037;-86
2022/01/07 02:12:25;;;;;;;8.13;2.85;;;3.30;93.50;;;;;;2101895;28;20105;-85
2022/01/07 02:13:25;;;;;;;7.78;3.00;;;3.30;93.50;;;;;;2105844;28;20042;-85
2022/01/07 02:14:26;;;;;;;6.63;2.72;;;3.30;93.50;;;;;;2093135;28;20134;-87
2022/01/07 02:15:27;;;;;;;8.27;3.25;;;3.30;93.50;;;;;;2087556;28;20395;-87
2022/01/07 02:16:27;;;;;;;6.45;2.72;;;3.30;93.50;;;;;;2072768;28;20060;-87
2022/01/07 02:17:28;;;;;;;7.10;2.67;;;3.30;93.60;;;;;;2064058;28;20031;-87
2022/01/07 02:18:29;;;;;;;8.30;3.35;;;3.30;93.60;;;;;;2089555;28;20053;-86
2022/01/07 02:19:33;;;;;;;7.13;3.00;;;3.30;93.60;;;;;;2097050;28;20063;-87
2022/01/07 02:20:34;;;;;;;6.63;2.80;;;3.30;93.60;;;;;;2082135;28;20025;-87
2022/01/07 02:21:38;;;;;;;5.28;2.72;;;3.30;93.60;;;;;;2095853;28;20068;-86
2022/01/07 02:22:39;;;;;;;6.25;2.58;;;3.30;93.60;;;;;;2106599;28;20032;-87
2022/01/07 02:23:39;;;;;;;4.47;2.45;;;3.30;93.60;;;;;;2093434;28;20119;-87
2022/01/07 02:24:40;;;;;;;6.50;2.70;;;3.30;93.60;;;;;;2095572;28;20043;-87
2022/01/07 02:25:41;;;;;;;7.30;2.80;;;3.30;93.60;;;;;;2079986;28;20037;-87
2022/01/07 02:26:41;;;;;;;5.80;3.00;;;3.30;93.60;;;;;;2080433;28;20400;-87
2022/01/07 02:27:44;;;;;;;6.18;2.92;;;3.30;93.60;;;;;;2092004;28;20135;-87
2022/01/07 02:28:45;;;;;;;9.80;3.15;;;3.30;93.60;;;;;;2090633;28;20025;-87
2022/01/07 02:29:49;;;;;;;8.23;3.45;;;3.40;93.70;;;;;;2089264;28;20116;-87
2022/01/07 02:30:50;;;;;;;7.68;3.28;;;3.40;93.70;;;;;;2104064;28;20512;-86
2022/01/07 02:31:50;;;;;;;6.50;2.88;;;3.30;93.60;;;;;;2089087;28;20036;-85
2022/01/07 02:32:51;;;;;;;8.98;3.17;;;3.30;93.60;;;;;;2080291;28;20085;-87
2022/01/07 02:33:53;;;;;;;6.38;3.00;;;3.30;93.70;;;;;;2091027;28;20025;-86
2022/01/07 02:34:53;;;;;;;5.30;2.70;;;3.30;93.70;;;;;;2085089;28;20037;-86
2022/01/07 02:35:54;;;;;;;8.35;2.92;;;3.40;93.70;;;;;;2080674;28;20033;-86
2022/01/07 02:36:54;;;;;;;7.32;2.60;;;3.40;93.70;;;;;;2095958;28;20043;-87
2022/01/07 02:37:56;;;;;;;5.68;2.53;;;3.40;93.70;;;;;;2103034;28;20036;-87
2022/01/07 02:38:56;;;;;;;5.45;2.50;;;3.40;93.70;;;;;;2093319;28;20029;-87
2022/01/07 02:39:57;;;;;;;7.35;2.75;;;3.40;94.00;;;;;;2081000;28;20093;-87
2022/01/07 02:40:58;;;;;;;7.40;2.80;;;3.40;93.70;;;;;;2085106;28;20509;-87
2022/01/07 02:41:59;;;;;;;6.78;2.88;;;3.40;93.70;;;;;;2089371;28;20033;-86
2022/01/07 02:42:59;;;;;;;6.88;2.97;;;3.40;93.70;;;;;;2078833;28;20064;-87
2022/01/07 02:44:00;;;;;;;5.55;2.67;;;3.40;93.70;;;;;;2089565;28;20033;-87
2022/01/07 02:45:01;;;;;;;7.32;2.83;;;3.40;93.70;;;;;;2103490;28;20127;-86
2022/01/07 02:46:02;;;;;;;5.35;2.70;;;3.40;93.70;;;;;;2098091;28;20045;-87
2022/01/07 02:47:03;;;;;;;7.45;3.22;;;3.40;93.70;;;;;;2090069;28;20526;-86
2022/01/07 02:48:04;;;;;;;4.68;2.75;;;3.40;93.70;;;;;;2083041;28;20034;-86
2022/01/07 02:49:13;;;;;;;6.10;2.97;;;3.40;93.70;;;;;;2089871;28;20037;-86
2022/01/07 02:50:14;;;;;;;5.32;2.80;;;3.40;93.70;;;;;;2092373;28;20029;-86
2022/01/07 02:51:15;;;;;;;6.30;2.63;;;3.40;94.00;;;;;;2089891;28;20091;-87
2022/01/07 02:52:15;;;;;;;6.85;2.60;;;3.40;93.70;;;;;;2088361;28;20527;-86
2022/01/07 02:53:16;;;;;;;7.68;2.90;;;3.40;93.70;;;;;;2087660;28;20511;-85
2022/01/07 02:54:17;;;;;;;6.60;2.85;;;3.40;93.70;;;;;;2088109;28;20063;-85
2022/01/07 02:55:19;;;;;;;7.50;2.78;;;3.40;93.70;;;;;;2096577;28;20028;-85
2022/01/07 02:56:20;;;;;;;8.43;2.90;;;3.40;93.70;;;;;;2097545;28;20390;-86
2022/01/07 02:57:21;;;;;;;6.43;2.65;;;3.40;93.70;;;;;;2105036;28;20043;-85
2022/01/07 02:58:21;;;;;;;9.10;2.80;;;3.40;93.70;;;;;;2097493;28;20068;-85
2022/01/07 02:59:22;;;;;;;5.90;2.70;;;3.40;93.70;;;;;;2085889;28;20039;-86
2022/01/07 03:00:24;;;;;;;6.30;2.67;;;3.40;93.70;;;;;;2088992;28;20029;-85
2022/01/07 03:01:25;;;;;;;6.57;3.03;;;3.40;93.70;;;;;;2097816;28;20479;-85
2022/01/07 03:02:25;;;;;;;5.93;2.60;;;3.40;93.70;;;;;;2088652;28;20120;-85
2022/01/07 03:03:26;;;;;;;5.78;3.00;;;3.40;93.70;;;;;;2089331;28;20562;-86
2022/01/07 03:04:28;;;;;;;5.40;3.20;;;3.40;93.70;;;;;;2083111;28;20041;-85
2022/01/07 03:05:28;;;;;;;5.03;2.55;;;3.40;93.70;;;;;;2080756;28;20089;-85
2022/01/07 03:06:29;;;;;;;7.22;2.80;;;3.40;93.70;;;;;;2080822;28;20068;-85
2022/01/07 03:07:30;;;;;;;6.60;2.50;;;3.40;93.80;;;;;;2083719;28;20078;-85
2022/01/07 03:08:30;;;;;;;5.78;2.75;;;3.40;93.80;;;;;;2080907;28;20112;-86
2022/01/07 03:09:31;;;;;;;5.55;2.30;;;3.40;93.80;;;;;;2081432;28;20040;-85
2022/01/07 03:10:33;;;;;;;5.57;2.30;;;3.40;93.80;;;;;;2094813;28;20494;-87
2022/01/07 03:11:34;;;;;;;5.03;2.60;;;3.40;93.80;;;;;;2078031;28;20389;-86
2022/01/07 03:12:36;;;;;;;5.63;2.80;;;3.40;93.80;;;;;;2080596;28;20042;-85
2022/01/07 03:13:37;;;;;;;5.55;2.50;;;3.40;93.80;;;;;;2089391;28;20517;-85
2022/01/07 03:14:37;;;;;;;4.90;2.40;;;3.40;93.80;;;;;;2080275;28;20034;-85
2022/01/07 03:15:38;;;;;;;6.68;2.78;;;3.40;93.80;;;;;;2103947;28;20039;-85
2022/01/07 03:16:39;;;;;;;5.90;2.45;;;3.30;93.80;;;;;;2096648;28;20044;-86
2022/01/07 03:17:40;;;;;;;6.45;2.70;;;3.40;93.80;;;;;;2071602;28;20088;-85
2022/01/07 03:18:41;;;;;;;6.82;2.35;;;3.40;93.80;;;;;;2079981;28;20599;-84
2022/01/07 03:19:42;;;;;;;5.13;2.33;;;3.40;93.80;;;;;;2088818;28;20045;-87
2022/01/07 03:20:43;;;;;;;4.93;2.00;;;3.40;93.80;;;;;;2087402;28;20171;-86
2022/01/07 03:21:43;;;;;;;3.75;2.20;;;3.40;93.80;;;;;;2070903;28;20095;-85
2022/01/07 03:22:45;;;;;;;6.65;2.35;;;3.30;93.90;;;;;;2080623;28;20583;-85
2022/01/07 03:23:46;;;;;;;4.50;2.03;;;3.40;93.90;;;;;;2085289;28;20079;-85
2022/01/07 03:24:47;;;;;;;5.00;2.08;;;3.40;93.90;;;;;;2076238;28;20034;-85
2022/01/07 03:25:47;;;;;;;7.07;2.28;;;3.40;93.90;;;;;;2088403;28;20037;-86
2022/01/07 03:26:48;;;;;;;5.68;2.30;;;3.40;93.90;;;;;;2080516;28;20033;-86
2022/01/07 03:27:49;;;;;;;7.55;2.17;;;3.40;93.90;;;;;;2088101;28;20144;-86
2022/01/07 03:28:49;;;;;;;6.18;2.35;;;3.40;93.90;;;;;;2097974;28;20128;-85
2022/01/07 03:29:50;;;;;;;6.07;2.25;;;3.40;93.90;;;;;;2088770;28;20049;-85
2022/01/07 03:30:51;;;;;;;5.18;2.08;;;3.40;93.90;;;;;;2088970;28;20091;-85
2022/01/07 03:31:51;;;;;;;4.80;2.30;;;3.40;93.90;;;;;;2088606;28;20136;-85
2022/01/07 03:32:52;;;;;;;6.72;2.33;;;3.40;93.90;;;;;;2080156;28;20034;-86
2022/01/07 03:33:53;;;;;;;5.70;2.53;;;3.40;93.90;;;;;;2072576;28;20045;-86
2022/01/07 03:34:54;;;;;;;4.82;2.55;;;3.40;93.90;;;;;;2080800;28;20038;-86
2022/01/07 03:35:54;;;;;;;4.63;2.15;;;3.40;93.90;;;;;;2097499;28;20158;-85
2022/01/07 03:36:55;;;;;;;5.25;2.20;;;3.40;93.90;;;;;;2097769;28;20076;-84
2022/01/07 03:37:56;;;;;;;5.53;2.35;;;3.40;93.90;;;;;;2089800;28;20033;-84
2022/01/07 03:38:57;;;;;;;5.90;2.70;;;3.40;93.90;;;;;;2080551;28;20484;-84
2022/01/07 03:39:58;;;;;;;7.97;2.30;;;3.40;93.90;;;;;;2080618;28;20397;-83
2022/01/07 03:40:59;;;;;;;4.18;1.95;;;3.40;93.90;;;;;;2079985;28;20049;-84
2022/01/07 03:41:59;;;;;;;4.47;2.13;;;3.40;93.90;;;;;;2077179;28;20033;-83
2022/01/07 03:43:00;;;;;;;6.45;2.38;;;3.40;93.90;;;;;;2071833;28;20166;-84
2022/01/07 03:44:01;;;;;;;4.63;2.30;;;3.40;93.90;;;;;;2080882;28;20529;-84
2022/01/07 03:45:04;;;;;;;5.72;2.15;;;3.40;94.00;;;;;;2086664;28;20036;-86
2022/01/07 03:46:04;;;;;;;4.85;2.33;;;3.40;94.00;;;;;;2086090;28;20060;-86
2022/01/07 03:47:05;;;;;;;5.07;2.00;;;3.40;94.00;;;;;;2098307;28;20438;-86
2022/01/07 03:48:06;;;;;;;4.05;2.10;;;3.40;94.00;;;;;;2107675;28;20048;-86
2022/01/07 03:49:07;;;;;;;5.32;2.28;;;3.40;94.00;;;;;;2102781;28;20078;-86
2022/01/07 03:50:10;;;;;;;5.47;2.22;;;3.40;94.00;;;;;;2090293;28;20087;-85
2022/01/07 03:51:11;;;;;;;5.05;2.50;;;3.40;94.00;;;;;;2090964;28;20036;-86
2022/01/07 03:52:12;;;;;;;5.97;2.35;;;3.40;94.00;;;;;;2082308;28;20538;-86
2022/01/07 03:53:12;;;;;;;5.18;2.55;;;3.30;94.00;;;;;;2082287;28;20037;-85
2022/01/07 03:54:13;;;;;;;4.40;2.47;;;3.30;94.00;;;;;;2082092;28;20373;-85
2022/01/07 03:55:16;;;;;;;5.00;2.30;;;3.30;94.00;;;;;;2082422;28;20053;-85
2022/01/07 03:56:18;;;;;;;5.13;2.30;;;3.30;94.10;;;;;;2088508;28;20041;-86
2022/01/07 03:57:19;;;;;;;5.43;2.33;;;3.30;94.40;;;;;;2100108;28;20490;-84
2022/01/07 03:58:21;;;;;;;5.53;2.50;;;3.30;94.10;;;;;;2098169;28;20049;-86
2022/01/07 03:59:21;;;;;;;6.07;2.55;;;3.30;94.10;;;;;;2081883;28;20496;-86
2022/01/07 04:00:26;;;;;;;5.13;2.40;;;3.30;94.20;;;;;;2089354;28;20083;-85
2022/01/07 04:01:27;;;;;;;5.18;2.10;;;3.30;94.20;;;;;;2097529;28;20078;-85
2022/01/07 04:02:28;;;;;;;5.13;2.10;;;3.30;94.20;;;;;;2080825;28;20111;-86
2022/01/07 04:03:29;;;;;;;6.18;2.88;;;3.30;94.20;;;;;;2086281;28;20124;-85
2022/01/07 04:04:30;;;;;;;3.20;1.90;;;3.30;94.20;;;;;;2090587;28;20066;-87
2022/01/07 04:05:30;;;;;;;5.60;2.10;;;3.30;94.20;;;;;;2075860;28;20053;-85
2022/01/07 04:06:31;;;;;;;3.90;1.80;;;3.30;94.20;;;;;;2085430;28;20045;-86
2022/01/07 04:07:32;;;;;;;4.13;2.13;;;3.30;94.50;;;;;;2085764;28;20598;-86
2022/01/07 04:08:33;;;;;;;4.43;2.10;;;3.30;94.20;;;;;;2078215;28;20042;-86
2022/01/07 04:09:33;;;;;;;3.88;2.00;;;3.30;94.30;;;;;;2077703;28;20176;-85
2022/01/07 04:10:34;;;;;;;3.92;1.73;;;3.30;94.30;;;;;;2074370;28;20070;-86
2022/01/07 04:11:35;;;;;;;3.83;1.73;;;3.30;94.30;;;;;;2089453;28;20033;-86
2022/01/07 04:12:36;;;;;;;3.75;1.85;;;3.30;94.30;;;;;;2101011;28;20132;-86
2022/01/07 04:13:36;;;;;;;5.15;1.98;;;3.30;94.30;;;;;;2088191;28;20091;-86
2022/01/07 04:14:37;;;;;;;6.97;1.85;;;3.30;94.30;;;;;;2067254;28;20117;-85
2022/01/07 04:15:38;;;;;;;3.45;1.80;;;3.30;94.30;;;;;;2090782;28;20387;-86
2022/01/07 04:16:38;;;;;;;7.03;2.35;;;3.30;94.30;;;;;;2095651;28;20040;-86
2022/01/07 04:17:44;;;;;;;3.72;1.83;;;3.30;94.30;;;;;;2090171;28;20052;-86
2022/01/07 04:18:45;;;;;;;4.60;2.20;;;3.30;94.30;;;;;;2092274;28;20087;-86
2022/01/07 04:19:46;;;;;;;6.25;2.10;;;3.30;94.30;;;;;;2084419;28;20140;-86
2022/01/07 04:20:46;;;;;;;4.45;2.28;;;3.30;94.30;;;;;;2081338;28;20041;-86
2022/01/07 04:21:49;;;;;;;3.63;1.90;;;3.30;94.30;;;;;;2090276;28;20087;-86
2022/01/07 04:22:50;;;;;;;4.13;2.38;;;3.30;94.30;;;;;;2107365;28;20042;-86
2022/01/07 04:23:50;;;;;;;4.15;1.80;;;3.30;94.30;;;;;;2114713;28;20031;-86
2022/01/07 04:24:51;;;;;;;3.83;1.92;;;3.30;94.40;;;;;;2094831;28;20040;-86
2022/01/07 04:25:52;;;;;;;3.47;1.70;;;3.30;94.40;;;;;;2098411;28;20441;-86
2022/01/07 04:26:52;;;;;;;4.47;1.85;;;3.30;94.40;;;;;;2096501;28;20033;-86
2022/01/07 04:27:57;;;;;;;4.13;1.70;;;3.30;94.40;;;;;;2092099;28;20033;-86
2022/01/07 04:28:57;;;;;;;4.05;1.95;;;3.30;94.40;;;;;;2089962;28;20032;-86
2022/01/07 04:29:58;;;;;;;6.43;2.40;;;3.30;94.40;;;;;;2091014;28;20111;-86
2022/01/07 04:30:59;;;;;;;5.13;2.10;;;3.30;94.40;;;;;;2090992;28;20120;-85
2022/01/07 04:32:01;;;;;;;5.75;2.53;;;3.30;94.40;;;;;;2090829;28;20048;-85
2022/01/07 04:33:03;;;;;;;5.50;2.30;;;3.30;94.40;;;;;;2090779;28;20033;-85
2022/01/07 04:34:04;;;;;;;3.78;2.00;;;3.30;94.40;;;;;;2092872;28;20410;-85
2022/01/07 04:35:06;;;;;;;7.57;2.25;;;3.30;94.40;;;;;;2098511;28;20047;-85
2022/01/07 04:36:07;;;;;;;4.88;2.10;;;3.30;94.40;;;;;;2082158;28;20526;-86
2022/01/07 04:37:07;;;;;;;5.15;2.25;;;3.20;94.40;;;;;;2079993;28;20096;-85
2022/01/07 04:38:09;;;;;;;3.63;1.85;;;3.20;94.40;;;;;;2081463;28;20175;-85
2022/01/07 04:39:10;;;;;;;4.38;2.00;;;3.20;94.40;;;;;;2089348;28;20025;-86
2022/01/07 04:40:12;;;;;;;4.13;1.85;;;3.20;94.40;;;;;;2084509;28;20056;-85
2022/01/07 04:41:13;;;;;;;3.85;2.10;;;3.20;94.40;;;;;;2081269;28;20143;-85
2022/01/07 04:42:14;;;;;;;3.40;2.08;;;3.20;94.50;;;;;;2080875;28;20035;-85
2022/01/07 04:43:15;;;;;;;3.90;1.90;;;3.20;94.50;;;;;;2073813;28;20496;-85
2022/01/07 04:44:16;;;;;;;4.13;2.10;;;3.20;94.70;;;;;;2065634;28;20517;-85
2022/01/07 04:45:17;;;;;;;4.93;2.35;;;3.10;94.50;;;;;;2081146;28;20128;-86
2022/01/07 04:46:18;;;;;;;4.20;2.13;;;3.10;94.50;;;;;;2090646;28;20040;-85
2022/01/07 04:47:18;;;;;;;3.60;1.98;;;3.10;94.50;;;;;;2090224;28;20041;-85
2022/01/07 04:48:19;;;;;;;4.03;2.17;;;3.10;94.60;;;;;;2089701;28;20475;-86
2022/01/07 04:49:20;;;;;;;4.38;2.10;;;3.10;94.60;;;;;;2090965;28;20052;-86
2022/01/07 04:50:21;;;;;;;3.55;2.10;;;3.10;94.60;;;;;;2086272;28;20383;-86
2022/01/07 04:51:22;;;;;;;4.97;2.10;;;3.00;94.60;;;;;;2089342;28;20150;-86
2022/01/07 04:52:22;;;;;;;3.55;1.75;;;3.00;94.60;;;;;;2090900;28;20033;-86
2022/01/07 04:53:23;;;;;;;4.55;1.70;;;3.00;94.60;;;;;;2079873;28;20029;-85
2022/01/07 04:54:24;;;;;;;4.90;2.10;;;3.00;94.70;;;;;;2066773;28;20468;-86
2022/01/07 04:55:29;;;;;;;3.90;2.00;;;3.00;94.70;;;;;;2090039;28;20110;-85
2022/01/07 04:56:29;;;;;;;3.30;1.90;;;3.00;94.70;;;;;;2096774;28;20503;-86
2022/01/07 04:57:30;;;;;;;3.70;1.80;;;3.00;94.70;;;;;;2105576;28;20032;-85
2022/01/07 04:58:31;;;;;;;4.80;2.10;;;3.00;94.70;;;;;;2105139;28;20029;-86
2022/01/07 04:59:32;;;;;;;4.65;2.03;;;3.00;94.70;;;;;;2101230;28;20039;-86
2022/01/07 05:00:33;;;;;;;3.80;1.98;;;3.00;94.70;;;;;;2096503;28;20423;-86
2022/01/07 05:01:34;;;;;;;4.13;1.95;;;3.00;94.70;;;;;;2090141;28;20041;-86
2022/01/07 05:02:35;;;;;;;4.93;2.03;;;3.00;94.70;;;;;;2101849;28;20473;-86
2022/01/07 05:03:35;;;;;;;4.07;1.92;;;3.10;94.70;;;;;;2102686;28;20181;-86
2022/01/07 05:04:36;;;;;;;4.03;1.90;;;3.10;94.70;;;;;;2090151;28;20507;-87
2022/01/07 05:05:37;;;;;;;6.13;2.13;;;3.10;94.70;;;;;;2082820;28;20076;-85
2022/01/07 05:06:47;;;;;;;3.50;2.00;;;3.10;94.80;;;;;;2089598;28;20037;-86
2022/01/07 05:07:48;;;;;;;4.03;2.13;;;3.10;94.80;;;;;;2091281;28;20067;-86
2022/01/07 05:08:49;;;;;;;3.85;2.05;;;3.10;94.70;;;;;;2093761;28;20139;-86
2022/01/07 05:09:49;;;;;;;3.13;1.90;;;3.10;94.70;;;;;;2101141;28;20394;-85
2022/01/07 05:10:50;;;;;;;5.28;2.10;;;3.10;94.80;;;;;;2105707;28;20037;-86
2022/01/07 05:11:52;;;;;;;5.18;2.10;;;3.10;94.80;;;;;;2106315;28;20127;-86
2022/01/07 05:12:53;;;;;;;4.68;2.03;;;3.10;94.80;;;;;;2106817;28;20039;-86
2022/01/07 05:13:53;;;;;;;3.22;1.70;;;3.10;94.80;;;;;;2104241;28;20494;-86
2022/01/07 05:14:54;;;;;;;4.03;2.10;;;3.10;94.80;;;;;;2099910;28;20082;-86
2022/01/07 05:15:54;;;;;;;4.25;2.00;;;3.20;94.80;;;;;;2098866;28;20048;-85
2022/01/07 05:16:56;;;;;;;3.65;2.10;;;3.10;94.80;;;;;;2090343;28;20143;-86
2022/01/07 05:17:56;;;;;;;3.72;1.77;;;3.20;94.80;;;;;;2098318;28;20040;-85
2022/01/07 05:18:57;;;;;;;4.80;2.30;;;3.20;94.80;;;;;;2095007;28;20044;-86
2022/01/07 05:19:58;;;;;;;5.53;2.20;;;3.20;94.80;;;;;;2089493;28;20041;-86
2022/01/07 05:20:59;;;;;;;5.03;2.40;;;3.20;94.80;;;;;;2094509;28;20036;-86
2022/01/07 05:21:59;;;;;;;5.25;2.15;;;3.20;94.80;;;;;;2097370;28;20511;-86